Time;durP1;ratioP1;P1;durP2;ratioP2;P2;SDS_P1;SDS_P2;PMS_P1;PMS_P2;Temp;Humidity;BMP_temperature;BMP_pressure;BME280_temperature;BME280_humidity;BME280_pressure;Samples;Min_cycle;Max_cycle;Signal;HPM_P1;HPM_P2
2021/01/20 00:00:49;;;;;;;0.70;0.60;;;6.60;99.90;;;7.36;100.00;99921.41;5008770;28;20535;-70
2021/01/20 00:03:17;;;;;;;0.70;0.60;;;6.60;99.90;;;7.34;100.00;102894.44;5012799;28;20425;-71
2021/01/20 00:05:45;;;;;;;0.70;0.60;;;6.60;99.90;;;7.31;100.00;105536.88;4997504;28;20873;-67
2021/01/20 00:08:11;;;;;;;0.70;0.60;;;6.60;99.90;;;7.28;100.00;109506.63;4993692;28;20428;-70
2021/01/20 00:10:38;;;;;;;0.70;0.60;;;6.60;99.90;;;7.19;100.00;113137.91;5006472;28;20522;-70
2021/01/20 00:13:06;;;;;;;0.60;0.50;;;6.50;99.90;;;7.25;100.00;116470.16;5012810;28;20460;-68
2021/01/20 00:15:33;;;;;;;0.70;0.70;;;6.50;99.90;;;7.16;100.00;118444.88;5014881;28;20996;-69
2021/01/20 00:18:00;;;;;;;0.60;0.50;;;6.50;99.90;;;7.12;100.00;122093.03;5017027;28;20824;-69
2021/01/20 00:20:28;;;;;;;1.20;1.10;;;6.40;99.90;;;7.09;100.00;126078.44;5014154;28;20430;-70
2021/01/20 00:22:56;;;;;;;0.70;0.60;;;6.40;99.90;;;7.06;100.00;127070.75;5016039;28;20429;-69
2021/01/20 00:25:23;;;;;;;0.70;0.57;;;6.40;99.90;;;7.01;100.00;129060.41;5011678;28;20450;-69
2021/01/20 00:27:50;;;;;;;0.60;0.50;;;6.40;99.90;;;6.96;100.00;131047.50;5015425;28;20826;-70
2021/01/20 00:30:18;;;;;;;0.60;0.60;;;6.40;99.90;;;6.94;100.00;132044.19;5007344;28;20478;-69
2021/01/20 00:32:45;;;;;;;0.70;0.60;;;6.40;99.90;;;7.10;100.00;132413.09;5016423;28;20499;-70
2021/01/20 00:35:13;;;;;;;0.67;0.53;;;6.50;99.90;;;6.87;100.00;133360.75;5006113;28;20443;-69
2021/01/20 00:37:41;;;;;;;0.70;0.50;;;6.30;99.90;;;6.66;100.00;136983.63;5014704;28;20461;-70
2021/01/20 00:40:09;;;;;;;0.70;0.60;;;6.10;99.90;;;6.73;100.00;139003.38;5014018;28;20468;-69
2021/01/20 00:42:36;;;;;;;0.70;0.60;;;6.10;99.90;;;6.84;100.00;138693.44;5015780;28;20454;-69
2021/01/20 00:45:05;;;;;;;0.70;0.60;;;6.20;99.90;;;6.92;100.00;139046.66;5011447;28;20536;-69
2021/01/20 00:47:32;;;;;;;0.70;0.63;;;6.20;99.90;;;6.85;100.00;139363.84;4995927;28;20910;-70
2021/01/20 00:49:59;;;;;;;0.70;0.60;;;6.10;99.90;;;6.89;100.00;139373.53;5009724;28;20952;-69
2021/01/20 00:52:27;;;;;;;0.70;0.67;;;6.20;99.90;;;6.93;100.00;139717.28;5015742;28;20484;-70
2021/01/20 00:54:55;;;;;;;0.70;0.60;;;6.20;99.90;;;6.87;100.00;141039.38;5002036;28;20453;-70
2021/01/20 00:57:23;;;;;;;0.70;0.60;;;6.20;99.90;;;6.87;100.00;141373.59;5030769;28;20442;-71
2021/01/20 00:59:50;;;;;;;0.70;0.60;;;6.20;99.90;;;6.85;100.00;141702.94;5030068;28;20457;-70
2021/01/20 01:02:17;;;;;;;0.70;0.60;;;6.10;99.90;;;6.73;100.00;142677.50;5031002;28;21026;-70
2021/01/20 01:04:46;;;;;;;0.60;0.60;;;6.10;99.90;;;6.60;100.00;143315.16;5021313;28;20474;-69
2021/01/20 01:07:14;;;;;;;0.63;0.60;;;6.00;99.90;;;6.41;100.00;144605.03;5030465;28;20453;-69
2021/01/20 01:09:41;;;;;;;0.70;0.60;;;5.80;99.90;;;6.33;100.00;144919.25;5013402;28;20453;-71
2021/01/20 01:12:35;;;;;;;0.70;0.60;;;5.80;99.90;;;6.31;100.00;145582.84;5012697;28;20500;-69
2021/01/20 01:15:04;;;;;;;0.70;0.60;;;5.60;99.90;;;6.33;100.00;145922.22;5025374;28;21020;-68
2021/01/20 01:17:34;;;;;;;0.70;0.60;;;5.60;99.90;;;6.42;100.00;145610.56;5030470;28;20442;-69
2021/01/20 01:20:03;;;;;;;0.60;0.60;;;5.80;99.90;;;6.54;100.00;144971.91;5022145;28;20438;-69
2021/01/20 01:22:30;;;;;;;0.60;0.50;;;5.80;99.90;;;6.55;100.00;144974.41;5002819;28;20430;-69
2021/01/20 01:24:57;;;;;;;0.67;0.57;;;5.80;99.90;;;6.77;100.00;144360.63;5008899;28;20482;-68
2021/01/20 01:27:24;;;;;;;0.63;0.60;;;6.10;99.90;;;7.00;100.00;142408.50;4995330;28;20415;-69
2021/01/20 01:29:58;;;;;;;0.70;0.60;;;6.20;99.90;;;7.09;100.00;139755.94;5023472;28;20473;-69
2021/01/20 01:32:34;;;;;;;0.80;0.80;;;6.30;99.90;;;7.27;100.00;137792.94;5014083;28;20430;-70
2021/01/20 01:35:07;;;;;;;0.70;0.60;;;6.40;99.90;;;7.35;100.00;136475.56;5008175;28;20427;-69
2021/01/20 01:37:34;;;;;;;0.70;0.60;;;6.50;99.90;;;7.34;100.00;136138.00;4994245;28;20441;-69
2021/01/20 01:40:11;;;;;;;0.70;0.60;;;6.50;99.90;;;7.46;100.00;135832.19;5007484;28;20441;-69
2021/01/20 01:43:16;;;;;;;0.63;0.60;;;6.60;99.90;;;7.57;100.00;135188.72;4986704;28;21090;-70
2021/01/20 01:45:57;;;;;;;0.70;0.50;;;6.70;99.90;;;7.61;100.00;133529.31;4991794;28;20800;-69
2021/01/20 01:48:24;;;;;;;0.70;0.70;;;6.70;99.90;;;7.64;100.00;133870.19;4985162;28;20442;-70
2021/01/20 01:50:51;;;;;;;0.70;0.50;;;6.70;99.90;;;7.49;100.00;137175.75;5010912;28;21008;-69
2021/01/20 01:53:18;;;;;;;0.80;0.80;;;6.60;99.90;;;7.33;100.00;140814.72;5012990;28;20450;-69
2021/01/20 01:56:06;;;;;;;0.70;0.60;;;6.40;99.90;;;7.25;100.00;143138.00;5006877;28;20474;-69
2021/01/20 01:58:42;;;;;;;0.70;0.60;;;6.30;99.90;;;7.48;100.00;143863.28;5029599;28;20462;-69
2021/01/20 02:01:17;;;;;;;0.70;0.60;;;6.30;99.90;;;7.47;100.00;141517.91;5029560;28;20447;-69
2021/01/20 02:03:53;;;;;;;0.70;0.60;;;6.40;99.90;;;7.55;100.00;139195.91;5029837;28;20488;-69
2021/01/20 02:06:25;;;;;;;0.70;0.60;;;6.70;99.90;;;7.65;100.00;138551.06;5018890;28;20443;-69
2021/01/20 02:09:01;;;;;;;0.70;0.60;;;6.70;99.90;;;7.67;100.00;138221.47;5026965;28;20871;-69
2021/01/20 02:11:49;;;;;;;0.70;0.60;;;6.70;99.90;;;7.52;100.00;138185.63;4995507;28;20436;-68
2021/01/20 02:14:31;;;;;;;0.70;0.70;;;6.70;99.90;;;7.62;100.00;139545.97;5012338;28;20842;-69
2021/01/20 02:17:29;;;;;;;0.70;0.63;;;6.70;99.90;;;7.64;100.00;138883.09;5017291;28;20453;-69
2021/01/20 02:20:33;;;;;;;0.73;0.70;;;6.80;99.90;;;7.75;100.00;139913.13;5027769;28;20446;-69
2021/01/20 02:23:08;;;;;;;0.70;0.60;;;6.90;99.90;;;7.87;100.00;140275.59;5024305;28;20474;-69
2021/01/20 02:26:19;;;;;;;0.70;0.60;;;7.00;99.90;;;7.90;100.00;140951.16;5005663;28;20950;-69
2021/01/20 02:29:41;;;;;;;0.67;0.57;;;7.00;99.90;;;8.02;100.00;142654.91;5002439;28;20462;-69
2021/01/20 02:32:28;;;;;;;0.70;0.63;;;7.00;99.90;;;7.88;100.00;142955.31;5005054;28;20443;-69
2021/01/20 02:34:59;;;;;;;0.70;0.60;;;7.10;99.90;;;7.90;100.00;144300.34;5024924;28;20529;-69
2021/01/20 02:37:27;;;;;;;0.70;0.53;;;7.10;99.90;;;8.19;100.00;144707.91;5006097;28;20990;-69
2021/01/20 02:40:08;;;;;;;0.70;0.60;;;7.20;99.90;;;8.16;100.00;145371.00;5017261;28;20455;-69
2021/01/20 02:42:55;;;;;;;0.70;0.70;;;7.10;99.90;;;8.22;100.00;145721.44;4993955;28;20524;-69
2021/01/20 02:45:31;;;;;;;0.70;0.60;;;7.20;99.90;;;8.14;100.00;146372.06;5023439;28;20520;-69
2021/01/20 02:48:00;;;;;;;0.70;0.60;;;7.20;99.90;;;8.24;100.00;146732.78;5012752;28;20839;-69
2021/01/20 02:50:28;;;;;;;0.70;0.60;;;7.10;99.90;;;7.95;100.00;146663.22;5016987;28;20474;-70
2021/01/20 02:53:04;;;;;;;0.70;0.70;;;7.20;99.90;;;7.96;100.00;146665.75;5015126;28;20459;-69
2021/01/20 02:56:11;;;;;;;0.70;0.60;;;7.10;99.90;;;7.83;100.00;146632.78;4990188;28;20813;-71
2021/01/20 02:58:58;;;;;;;0.70;0.60;;;7.00;99.90;;;8.13;100.00;146707.53;4975444;28;20545;-71
2021/01/20 03:01:31;;;;;;;0.70;0.60;;;7.00;99.90;;;7.87;100.00;146642.91;5004818;28;20453;-70
2021/01/20 03:04:01;;;;;;;0.70;0.50;;;6.90;99.90;;;8.02;100.00;146678.41;5013501;28;20958;-70
2021/01/20 03:06:31;;;;;;;0.70;0.60;;;6.80;99.90;;;7.85;100.00;146637.88;5010972;28;20431;-71
2021/01/20 03:08:58;;;;;;;0.70;0.60;;;6.70;99.90;;;7.74;100.00;146610.00;5012371;28;20968;-70
2021/01/20 03:11:25;;;;;;;0.70;0.60;;;6.70;99.90;;;7.53;100.00;146558.03;5012301;28;20790;-71
2021/01/20 03:13:53;;;;;;;0.70;0.70;;;6.70;99.90;;;7.44;100.00;146535.25;5011909;28;20454;-70
2021/01/20 03:16:26;;;;;;;0.63;0.57;;;6.60;99.90;;;7.41;100.00;146528.91;5013713;28;20437;-70
2021/01/20 03:18:53;;;;;;;0.60;0.60;;;6.60;99.90;;;7.61;100.00;146577.03;5013144;28;20488;-71
2021/01/20 03:21:21;;;;;;;0.70;0.50;;;6.60;99.90;;;7.56;100.00;146564.41;5000546;28;20451;-70
2021/01/20 03:23:48;;;;;;;0.70;0.50;;;6.60;99.90;;;7.67;100.00;146593.50;5010062;28;20426;-70
2021/01/20 03:26:15;;;;;;;0.70;0.60;;;6.60;99.90;;;7.47;100.00;146544.13;4995657;28;20432;-70
2021/01/20 03:28:42;;;;;;;0.70;0.60;;;6.60;99.90;;;7.59;100.00;146573.25;4994052;28;20453;-71
2021/01/20 03:31:08;;;;;;;0.70;0.60;;;6.60;99.90;;;7.55;100.00;146561.81;4998694;28;20441;-69
2021/01/20 03:33:35;;;;;;;0.70;0.60;;;6.60;99.90;;;7.40;100.00;146526.41;5013884;28;20752;-70
2021/01/20 03:36:03;;;;;;;0.73;0.73;;;6.60;99.90;;;7.43;100.00;146532.69;5011737;28;20480;-70
2021/01/20 03:38:30;;;;;;;0.80;0.70;;;6.60;99.90;;;7.28;100.00;146494.72;5002002;28;20788;-71
2021/01/20 03:40:57;;;;;;;0.70;0.60;;;6.50;99.90;;;7.31;100.00;146503.56;5012456;28;20786;-70
2021/01/20 03:43:24;;;;;;;0.70;0.60;;;6.40;99.90;;;7.26;100.00;146492.19;5005134;28;20454;-71
2021/01/20 03:45:51;;;;;;;0.70;0.60;;;6.40;99.90;;;7.23;100.00;146484.59;4993937;28;20450;-71
2021/01/20 03:48:18;;;;;;;0.70;0.60;;;6.40;99.90;;;7.18;100.00;146471.94;5000286;28;20437;-70
2021/01/20 03:50:45;;;;;;;0.70;0.60;;;6.40;99.90;;;7.40;100.00;146525.09;5004232;28;20471;-69
2021/01/20 03:53:12;;;;;;;0.70;0.60;;;6.50;99.90;;;7.32;100.00;146506.09;5002186;28;20452;-69
2021/01/20 03:55:40;;;;;;;0.70;0.60;;;6.50;99.90;;;7.43;100.00;146532.69;5013384;28;20428;-69
2021/01/20 03:58:07;;;;;;;0.70;0.60;;;6.50;99.90;;;7.54;100.00;146560.56;5013052;28;20944;-69
2021/01/20 04:00:33;;;;;;;0.70;0.67;;;6.60;99.90;;;7.64;100.00;146584.66;5012476;28;20440;-69
2021/01/20 04:03:00;;;;;;;0.67;0.50;;;6.60;99.90;;;7.50;100.00;146550.44;5011215;28;20466;-70
2021/01/20 04:05:48;;;;;;;0.70;0.60;;;6.60;99.90;;;7.51;100.00;146552.94;4998201;28;20529;-69
2021/01/20 04:08:14;;;;;;;0.70;0.60;;;6.60;99.90;;;7.37;100.00;146517.53;4994802;28;20447;-69
2021/01/20 04:10:43;;;;;;;0.70;0.60;;;6.50;99.90;;;7.35;100.00;146512.44;5005429;28;20556;-69
2021/01/20 04:13:10;;;;;;;0.70;0.60;;;6.60;99.90;;;7.23;100.00;146484.59;5011913;28;20429;-69
2021/01/20 04:15:37;;;;;;;0.70;0.60;;;6.50;99.90;;;7.24;100.00;146487.09;4999454;28;20449;-69
2021/01/20 04:18:04;;;;;;;0.70;0.50;;;6.50;99.90;;;7.28;100.00;146495.97;4996692;28;20437;-69
2021/01/20 04:20:31;;;;;;;0.70;0.60;;;6.50;99.90;;;7.28;100.00;146495.97;5011463;28;20487;-70
2021/01/20 04:22:58;;;;;;;0.70;0.60;;;6.50;99.90;;;7.39;100.00;146523.81;5013008;28;20982;-69
2021/01/20 04:25:25;;;;;;;0.70;0.60;;;6.50;99.90;;;7.36;100.00;146514.97;5010712;28;20475;-69
2021/01/20 04:27:53;;;;;;;4.50;3.07;;;6.50;99.90;;;7.36;100.00;146516.22;5012290;28;20433;-69
2021/01/20 04:30:22;;;;;;;0.60;0.50;;;6.60;99.90;;;7.55;100.00;146563.13;5005490;28;20910;-69
2021/01/20 04:32:49;;;;;;;0.70;0.60;;;6.60;99.90;;;7.69;100.00;146597.31;5002207;28;20486;-68
2021/01/20 04:35:16;;;;;;;0.63;0.50;;;6.70;99.90;;;7.50;100.00;146550.44;4995686;28;20447;-68
2021/01/20 04:37:43;;;;;;;0.80;0.80;;;6.80;99.90;;;7.42;100.00;146531.44;4995278;28;20475;-71
2021/01/20 04:40:11;;;;;;;0.70;0.60;;;6.70;99.90;;;7.51;100.00;146552.94;5006593;28;20531;-69
2021/01/20 04:42:38;;;;;;;0.70;0.60;;;6.60;99.90;;;7.45;100.00;146537.78;5013119;28;20487;-71
2021/01/20 04:45:07;;;;;;;0.70;0.60;;;6.70;99.90;;;7.64;100.00;146585.91;5010698;28;20568;-69
2021/01/20 04:47:36;;;;;;;0.70;0.60;;;6.80;99.90;;;7.79;100.00;146621.38;5012777;28;20805;-69
2021/01/20 04:50:05;;;;;;;0.70;0.60;;;6.90;99.90;;;7.89;100.00;146646.75;5006126;28;20951;-69
2021/01/20 04:52:33;;;;;;;0.70;0.67;;;7.00;99.90;;;7.95;100.00;146661.91;4998927;28;20466;-70
2021/01/20 04:55:01;;;;;;;0.70;0.60;;;7.10;99.90;;;8.16;100.00;146715.13;5011842;28;20438;-70
2021/01/20 04:57:33;;;;;;;0.67;0.60;;;7.20;99.90;;;8.18;100.00;146720.22;5015680;28;20455;-70
2021/01/20 05:00:03;;;;;;;0.70;0.50;;;7.30;99.90;;;8.15;100.00;146712.63;5015067;28;20954;-69
2021/01/20 05:02:33;;;;;;;0.70;0.60;;;7.30;99.90;;;8.14;100.00;146710.09;5016032;28;20935;-69
2021/01/20 05:05:02;;;;;;;0.70;0.63;;;7.30;99.90;;;8.24;100.00;146735.41;5008866;28;20500;-68
2021/01/20 05:07:29;;;;;;;0.70;0.60;;;7.40;99.90;;;8.18;100.00;146718.97;4995686;28;21088;-69
2021/01/20 05:09:57;;;;;;;6.73;1.23;;;7.30;99.90;;;8.27;100.00;146740.50;5009166;28;20460;-69
2021/01/20 05:12:37;;;;;;;0.70;0.60;;;7.30;99.90;;;8.07;100.00;146692.34;5015960;28;20450;-70
2021/01/20 05:15:07;;;;;;;0.70;0.60;;;7.40;99.90;;;8.02;100.00;146679.66;5012015;28;20457;-69
2021/01/20 05:17:36;;;;;;;0.60;0.50;;;7.30;99.90;;;8.01;100.00;146677.13;4998158;28;20485;-71
2021/01/20 05:20:04;;;;;;;0.70;0.60;;;7.10;99.90;;;7.78;100.00;146620.13;5011611;28;20454;-69
2021/01/20 05:22:31;;;;;;;0.70;0.60;;;7.00;99.90;;;7.66;100.00;146589.72;5015594;28;20794;-69
2021/01/20 05:25:00;;;;;;;0.70;0.60;;;6.90;99.90;;;7.54;100.00;146559.31;5013015;28;20443;-69
2021/01/20 05:27:32;;;;;;;0.70;0.60;;;6.80;99.90;;;7.59;100.00;146573.25;5015468;28;20419;-69
2021/01/20 05:30:02;;;;;;;0.70;0.60;;;6.70;99.90;;;7.55;100.00;146561.81;4997656;28;20478;-69
2021/01/20 05:32:29;;;;;;;0.70;0.50;;;6.70;99.90;;;7.50;100.00;146550.44;5015662;28;20429;-69
2021/01/20 05:35:03;;;;;;;0.70;0.60;;;6.60;99.90;;;7.35;100.00;146512.44;5008334;28;20529;-70
2021/01/20 05:37:31;;;;;;;0.70;0.60;;;6.50;99.90;;;7.34;100.00;146509.91;5015628;28;20483;-70
2021/01/20 05:40:10;;;;;;;0.70;0.60;;;6.50;99.90;;;7.36;100.00;146516.22;4998001;28;20903;-70
2021/01/20 05:42:45;;;;;;;0.70;0.60;;;6.40;99.90;;;7.36;100.00;146514.97;5010492;28;20853;-69
2021/01/20 05:45:12;;;;;;;0.70;0.60;;;6.50;99.90;;;7.26;100.00;146492.19;5003099;28;20543;-69
2021/01/20 05:48:06;;;;;;;0.60;0.50;;;6.40;99.90;;;7.33;100.00;146507.34;5004338;28;20440;-69
2021/01/20 05:50:37;;;;;;;0.70;0.60;;;6.40;99.90;;;7.18;100.00;146470.63;5008492;28;20513;-69
2021/01/20 05:53:07;;;;;;;0.70;0.60;;;6.40;99.90;;;7.21;100.00;146479.50;5018237;28;20483;-71
2021/01/20 05:55:35;;;;;;;0.70;0.53;;;6.40;99.90;;;7.32;100.00;146504.84;5003612;28;20466;-70
2021/01/20 05:58:03;;;;;;;0.70;0.60;;;6.50;99.90;;;7.31;100.00;146503.56;4995095;28;20558;-70
2021/01/20 06:00:30;;;;;;;0.70;0.60;;;6.60;99.90;;;7.38;100.00;146521.31;4998072;28;20494;-69
2021/01/20 06:02:58;;;;;;;0.70;0.70;;;6.60;99.90;;;7.55;100.00;146561.81;5013026;28;20426;-70
2021/01/20 06:05:27;;;;;;;0.70;0.60;;;6.60;99.90;;;7.47;100.00;146544.13;5003829;28;20502;-69
2021/01/20 06:07:55;;;;;;;0.70;0.60;;;6.70;99.90;;;7.67;100.00;146592.25;5021755;28;20484;-70
2021/01/20 06:10:23;;;;;;;0.70;0.53;;;6.70;99.90;;;7.60;100.00;146575.78;5013934;28;20495;-70
2021/01/20 06:12:51;;;;;;;0.70;0.50;;;6.60;99.90;;;7.62;100.00;146580.88;5015026;28;20522;-70
2021/01/20 06:15:22;;;;;;;0.70;0.60;;;6.70;99.90;;;7.54;100.00;146559.31;5009375;28;20828;-69
2021/01/20 06:17:53;;;;;;;0.70;0.60;;;6.70;99.90;;;7.82;100.00;146629.00;5013996;28;20981;-69
2021/01/20 06:20:23;;;;;;;0.70;0.60;;;6.70;99.90;;;7.80;100.00;146623.91;5011299;28;20918;-69
2021/01/20 06:22:54;;;;;;;0.70;0.60;;;6.80;99.90;;;7.77;100.00;146616.28;5003391;28;20688;-70
2021/01/20 06:25:29;;;;;;;0.70;0.60;;;6.80;99.90;;;7.78;100.00;146618.88;4995664;28;20943;-68
2021/01/20 06:28:02;;;;;;;0.70;0.60;;;6.90;99.90;;;7.81;100.00;146626.47;5000591;28;20449;-70
2021/01/20 06:30:36;;;;;;;0.70;0.60;;;6.90;99.90;;;8.02;100.00;146679.66;5007536;28;20462;-70
2021/01/20 06:33:08;;;;;;;1.07;0.97;;;7.00;99.90;;;8.01;100.00;146675.88;5014015;28;20456;-69
2021/01/20 06:35:43;;;;;;;0.70;0.67;;;7.10;99.90;;;8.23;100.00;146732.91;5012342;28;20518;-70
2021/01/20 06:38:38;;;;;;;0.67;0.60;;;7.40;99.90;;;8.24;100.00;146735.41;5013213;28;20446;-70
2021/01/20 06:41:11;;;;;;;0.70;0.60;;;7.50;99.90;;;8.42;100.00;146778.56;5020701;28;20476;-68
2021/01/20 06:43:41;;;;;;;0.70;0.60;;;7.50;99.90;;;8.48;100.00;146789.91;5002515;28;20448;-69
2021/01/20 06:46:25;;;;;;;0.70;0.60;;;7.60;99.90;;;8.57;100.00;146813.97;5007760;28;20454;-68
2021/01/20 06:49:14;;;;;;;0.70;0.60;;;7.70;99.90;;;8.62;100.00;146826.69;5026877;28;20445;-68
2021/01/20 06:51:43;;;;;;;0.70;0.60;;;7.70;99.90;;;8.53;100.00;146468.19;5010829;28;20868;-69
2021/01/20 06:54:15;;;;;;;0.70;0.63;;;7.80;99.90;;;8.61;100.00;146822.84;5009241;28;20929;-68
2021/01/20 06:56:55;;;;;;;0.80;0.80;;;7.70;99.90;;;8.60;100.00;146822.94;5003146;28;20443;-68
2021/01/20 06:59:26;;;;;;;0.70;0.60;;;7.70;99.90;;;8.66;100.00;146836.81;5012125;28;20463;-66
2021/01/20 07:02:14;;;;;;;0.70;0.60;;;7.80;99.90;;;8.55;100.00;146810.28;5012301;28;20452;-68
2021/01/20 07:05:04;;;;;;;0.70;0.60;;;7.80;99.90;;;8.67;100.00;146841.97;5018134;28;20457;-70
2021/01/20 07:07:54;;;;;;;0.70;0.60;;;7.80;99.90;;;8.73;100.00;146854.63;4993226;28;20480;-69
2021/01/20 07:10:24;;;;;;;0.70;0.63;;;7.70;99.90;;;8.81;100.00;146876.22;5006296;28;20469;-68
2021/01/20 07:13:31;;;;;;;0.70;0.60;;;7.80;99.90;;;8.81;100.00;146874.94;5011457;28;20435;-70
2021/01/20 07:15:59;;;;;;;0.70;0.60;;;7.90;99.90;;;8.83;100.00;146880.00;5007280;28;20861;-70
2021/01/20 07:18:26;;;;;;;0.70;0.60;;;8.00;99.90;;;8.81;100.00;146874.94;5011375;28;20465;-70
2021/01/20 07:20:54;;;;;;;0.70;0.60;;;7.90;99.90;;;8.82;100.00;146878.72;5010751;28;20447;-70
2021/01/20 07:23:22;;;;;;;0.70;0.60;;;8.00;99.90;;;8.86;100.00;146888.88;5012790;28;20440;-69
2021/01/20 07:25:53;;;;;;;0.70;0.60;;;8.00;99.90;;;8.75;100.00;146860.97;5011358;28;20444;-69
2021/01/20 07:28:22;;;;;;;0.70;0.60;;;8.10;99.90;;;8.95;100.00;146910.47;5010766;28;20441;-69
2021/01/20 07:31:03;;;;;;;0.80;0.80;;;8.00;99.90;;;8.82;100.00;146877.47;5010581;28;20531;-69
2021/01/20 07:33:30;;;;;;;0.70;0.60;;;7.80;99.90;;;8.62;100.00;146828.03;5004227;28;20496;-70
2021/01/20 07:35:57;;;;;;;0.70;0.70;;;7.70;99.90;;;8.62;100.00;146829.31;5007584;28;20428;-70
2021/01/20 07:38:32;;;;;;;0.70;0.60;;;7.60;99.90;;;8.76;100.00;146863.50;5007085;28;20460;-69
2021/01/20 07:41:11;;;;;;;0.70;0.60;;;7.60;99.90;;;8.53;100.00;146806.47;5012254;28;20428;-70
2021/01/20 07:43:38;;;;;;;0.70;0.70;;;7.60;99.90;;;8.56;100.00;146814.06;5018565;28;20478;-70
2021/01/20 07:46:18;;;;;;;0.70;0.60;;;7.50;99.90;;;8.50;100.00;146798.84;4997893;28;21014;-68
2021/01/20 07:48:46;;;;;;;0.70;0.60;;;7.40;99.90;;;8.39;100.00;146770.97;5000444;28;20429;-71
2021/01/20 07:51:21;;;;;;;0.70;0.60;;;7.50;99.90;;;8.58;100.00;146817.84;5012154;28;20529;-69
2021/01/20 07:53:59;;;;;;;0.70;0.60;;;7.50;99.90;;;8.56;100.00;146814.06;5006262;28;20477;-69
2021/01/20 07:56:27;;;;;;;0.70;0.60;;;7.60;99.90;;;8.84;100.00;146882.56;5011352;28;20790;-71
2021/01/20 07:58:55;;;;;;;0.70;0.63;;;7.60;99.90;;;8.68;100.00;146844.47;5027418;28;20462;-69
2021/01/20 08:01:28;;;;;;;0.80;0.80;;;7.60;99.90;;;8.83;100.00;146881.25;5010021;28;20436;-68
2021/01/20 08:03:57;;;;;;;0.70;0.60;;;7.70;99.90;;;8.86;100.00;146888.88;5007706;28;20451;-68
2021/01/20 08:06:26;;;;;;;0.70;0.60;;;7.80;99.90;;;8.92;100.00;146902.84;5007112;28;20515;-69
2021/01/20 08:08:57;;;;;;;0.80;0.70;;;8.00;99.90;;;8.98;100.00;146916.78;5011747;28;20456;-69
2021/01/20 08:11:30;;;;;;;0.70;0.70;;;8.00;99.90;;;9.02;100.00;146926.91;5011721;28;20483;-71
2021/01/20 08:14:02;;;;;;;0.70;0.67;;;8.20;99.90;;;9.02;100.00;146926.91;5009223;28;20475;-69
2021/01/20 08:16:34;;;;;;;0.70;0.60;;;8.10;99.90;;;8.98;100.00;146916.78;5009144;28;20444;-69
2021/01/20 08:19:03;;;;;;;0.70;0.60;;;8.10;99.90;;;9.02;100.00;146926.91;5011553;28;20485;-69
2021/01/20 08:21:31;;;;;;;0.70;0.60;;;8.20;99.90;;;9.08;100.00;146943.41;5009507;28;20801;-69
2021/01/20 08:24:01;;;;;;;0.70;0.70;;;8.10;99.90;;;9.20;100.00;146972.56;5010222;28;20497;-69
2021/01/20 08:26:30;;;;;;;0.70;0.60;;;8.10;99.90;;;9.12;100.00;146953.56;5007347;28;20569;-69
2021/01/20 08:29:09;;;;;;;0.70;0.60;;;8.10;99.90;;;9.25;100.00;146984.03;5011747;28;20473;-70
2021/01/20 08:31:39;;;;;;;0.70;0.60;;;8.00;99.90;;;9.13;100.00;146954.81;5013654;28;20704;-68
2021/01/20 08:34:20;;;;;;;0.70;0.60;;;8.00;99.90;;;9.07;100.00;146940.88;5016679;28;20426;-68
2021/01/20 08:36:58;;;;;;;0.70;0.70;;;8.00;99.90;;;9.03;100.00;146930.75;5008583;28;20800;-70
2021/01/20 08:39:25;;;;;;;0.90;0.80;;;8.00;99.90;;;9.09;100.00;146945.94;5015043;28;20921;-68
2021/01/20 08:42:14;;;;;;;0.70;0.60;;;8.00;99.90;;;8.96;100.00;146913.00;5014851;28;20423;-70
2021/01/20 08:44:58;;;;;;;0.70;0.60;;;8.00;99.90;;;8.87;100.00;146890.13;5004078;28;20867;-70
2021/01/20 08:47:26;;;;;;;0.70;0.70;;;8.00;99.90;;;8.95;100.00;146910.47;4996414;28;20420;-69
2021/01/20 08:49:54;;;;;;;0.70;0.60;;;8.00;99.90;;;8.94;100.00;146907.88;4997226;28;20909;-68
2021/01/20 08:52:21;;;;;;;0.70;0.60;;;8.00;99.90;;;9.06;100.00;146937.09;5001517;28;20455;-70
2021/01/20 08:54:48;;;;;;;0.70;0.63;;;8.00;99.90;;;9.15;100.00;146961.16;5002634;28;20923;-70
2021/01/20 08:57:20;;;;;;;0.70;0.70;;;8.00;99.90;;;9.18;100.00;146968.78;4996424;28;20433;-70
2021/01/20 08:59:58;;;;;;;0.70;0.70;;;8.00;99.90;;;9.05;100.00;146934.53;4998436;28;20461;-69
2021/01/20 09:02:26;;;;;;;0.70;0.60;;;8.00;99.90;;;9.14;100.00;146957.38;4996149;28;20517;-68
2021/01/20 09:05:13;;;;;;;0.70;0.70;;;8.10;99.90;;;9.21;100.00;146975.13;4995656;28;20473;-70
2021/01/20 09:07:40;;;;;;;0.70;0.70;;;8.10;99.90;;;9.02;100.00;146928.22;4995921;28;20428;-69
2021/01/20 09:10:09;;;;;;;0.70;0.60;;;8.10;99.90;;;9.09;100.00;146945.94;4997963;28;20468;-69
2021/01/20 09:12:36;;;;;;;0.70;0.60;;;8.10;99.90;;;9.24;100.00;146982.72;5016122;28;20428;-69
2021/01/20 09:15:05;;;;;;;1.27;1.17;;;8.10;99.90;;;9.23;100.00;146978.94;5010245;28;20463;-69
2021/01/20 09:17:33;;;;;;;0.70;0.60;;;8.20;99.90;;;9.17;100.00;146966.25;4995897;28;20465;-69
2021/01/20 09:20:00;;;;;;;0.70;0.70;;;8.20;99.90;;;9.45;100.00;147034.75;5010932;28;20774;-69
2021/01/20 09:22:28;;;;;;;0.70;0.60;;;8.20;99.90;;;9.35;100.00;147009.34;5015105;28;20435;-68
2021/01/20 09:24:55;;;;;;;0.70;0.70;;;8.30;99.90;;;9.47;100.00;147037.22;5009302;28;20461;-69
2021/01/20 09:27:22;;;;;;;0.70;0.70;;;8.30;99.90;;;9.35;100.00;144654.69;4996209;28;20906;-70
2021/01/20 09:29:49;;;;;;;0.70;0.70;;;8.30;99.90;;;9.48;100.00;145023.16;5010239;28;20559;-69
2021/01/20 09:32:16;;;;;;;0.70;0.60;;;8.30;99.90;;;9.31;100.00;144644.72;5013857;28;20442;-70
2021/01/20 09:34:44;;;;;;;0.97;0.90;;;8.30;99.90;;;9.39;100.00;142985.53;5015191;28;20765;-70
2021/01/20 09:37:11;;;;;;;0.70;0.70;;;8.40;99.90;;;9.60;100.00;142365.66;5013899;28;20535;-69
2021/01/20 09:39:38;;;;;;;0.70;0.63;;;8.40;99.90;;;9.75;100.00;141729.53;5000742;28;20530;-70
2021/01/20 09:42:05;;;;;;;0.70;0.60;;;8.40;99.90;;;9.76;100.00;140053.22;4996137;28;20443;-69
2021/01/20 09:44:32;;;;;;;0.70;0.60;;;8.50;99.90;;;9.75;100.00;140385.25;4996153;28;20471;-68
2021/01/20 09:47:01;;;;;;;0.70;0.70;;;8.40;99.90;;;9.38;100.00;141305.88;5014707;28;21008;-69
2021/01/20 09:49:28;;;;;;;0.77;0.70;;;8.40;99.90;;;9.56;100.00;142018.81;5010332;28;20961;-69
2021/01/20 09:51:56;;;;;;;0.80;0.80;;;8.50;99.60;;;9.64;100.00;139354.19;4995630;28;20524;-69
2021/01/20 09:54:28;;;;;;;0.70;0.60;;;8.40;99.70;;;9.77;100.00;138377.56;5010315;28;20811;-69
2021/01/20 09:56:56;;;;;;;0.70;0.70;;;8.40;99.30;;;9.84;100.00;136381.44;5012801;28;20461;-68
2021/01/20 09:59:26;;;;;;;0.80;0.70;;;8.50;99.10;;;9.80;100.00;134024.13;5008924;28;20512;-71
2021/01/20 10:01:53;;;;;;;0.70;0.60;;;8.60;98.80;;;9.65;100.00;133656.69;4995273;28;20988;-70
2021/01/20 10:04:21;;;;;;;0.80;0.80;;;8.60;97.90;;;9.86;100.00;132698.72;4996715;28;20789;-68
2021/01/20 10:06:58;;;;;;;0.80;0.73;;;8.60;98.20;;;9.91;100.00;131034.09;5013816;28;20925;-70
2021/01/20 10:09:25;;;;;;;0.70;0.60;;;8.70;98.40;;;9.89;100.00;129020.72;5014023;28;20438;-71
2021/01/20 10:11:53;;;;;;;0.70;0.70;;;8.70;96.60;;;9.75;100.00;127652.38;5014556;28;20439;-68
2021/01/20 10:14:20;;;;;;;2.23;1.77;;;8.70;96.50;;;10.10;100.00;125051.88;5013368;28;20457;-70
2021/01/20 10:16:47;;;;;;;0.70;0.70;;;8.80;96.10;;;9.98;100.00;122017.81;5009052;28;20445;-70
2021/01/20 10:19:15;;;;;;;0.70;0.60;;;8.80;95.70;;;10.04;100.00;120694.19;5012115;28;20532;-70
2021/01/20 10:21:43;;;;;;;0.70;0.60;;;8.80;96.00;;;10.15;100.00;123390.66;5015122;28;20902;-70
2021/01/20 10:24:12;;;;;;;0.70;0.70;;;8.80;95.70;;;10.09;100.00;120369.56;4997506;28;20442;-71
2021/01/20 10:26:39;;;;;;;0.70;0.60;;;8.90;94.60;;;10.18;100.00;118050.72;5013203;28;20492;-70
2021/01/20 10:29:07;;;;;;;0.70;0.60;;;9.00;94.60;;;10.26;100.00;114061.94;5013331;28;20453;-69
2021/01/20 10:31:36;;;;;;;0.70;0.63;;;9.10;93.20;;;10.23;100.00;106727.28;5015233;28;20464;-66
2021/01/20 10:34:06;;;;;;;0.70;0.70;;;9.20;92.10;;;10.36;100.00;105420.22;5002294;28;20440;-65
2021/01/20 10:36:33;;;;;;;0.70;0.60;;;9.20;92.40;;;10.37;100.00;105755.69;4996648;28;20524;-64